• Join FlightAware (Why Join?)
  • Login
  • US Flag 
04:13PM EST


 

Airport Tracker/Info


-or-


 

Live Flight TrackerFlight Track Log ✈ N1250V ✈ 17-Jun-2013 ✈ KBJC - KLUK

Flight Track Log - Related Links

Times and Time Zones

All times are in EDT time to prevent confusion due to time zone crossing. See the N1250V flight status page for this flight to view local times or setup timezone preferences in your user account.

Time Position Orientation Groundspeed Altitude Reporting Facility
EDT Latitude Longitude Course Direction KTS MPH feet Rate Location/Type
11:26AM 39.9667 -105.1500 337° Northwest 164 189 8,200  Level Denver TRACON
11:27AM 39.9667 -105.1000 90° East 181 208 10,000 1,680 Climbing Denver TRACON
11:28AM 39.9694 -105.0767 81° East 171 197 10,500 1,680 Climbing Denver Center
11:29AM 39.9600 -105.0189 102° East 165 190 12,300 1,740 Climbing Denver Center
11:30AM 39.9486 -104.9542 103° East 169 194 14,100 1,440 Climbing Denver Center
11:31AM 39.9381 -104.8864 101° East 188 216 15,300 1,200 Climbing Denver Center
11:32AM 39.9242 -104.8028 102° East 218 251 16,700 1,080 Climbing Denver Center
11:33AM 39.9089 -104.7117 102° East 259 298 17,600 900 Climbing Denver Center
11:34AM 39.8911 -104.6072 102° East 291 335 18,600 1,200 Climbing Denver Center
11:35AM 39.8733 -104.4997 102° East 284 327 20,100 1,500 Climbing Denver Center
11:36AM 39.8542 -104.4000 104° East 284 327 21,800 1,500 Climbing Denver Center
11:37AM 39.8369 -104.3042 103° East 274 315 23,300 1,260 Climbing Denver Center
11:38AM 39.8214 -104.2022 101° East 274 315 24,500 1,080 Climbing Denver Center
11:39AM 39.8028 -104.1014 103° East 284 327 25,600 960 Climbing Denver Center
11:40AM 39.7850 -103.9969 102° East 293 337 26,600 840 Climbing Denver Center
11:41AM 39.7678 -103.8903 102° East 304 350 27,400 960 Climbing Denver Center
11:42AM 39.7428 -103.7592 104° East 309 356 28,600 960 Climbing Denver Center
11:43AM 39.7331 -103.6517 97° East 301 346 29,500 840 Climbing Denver Center
11:44AM 39.7247 -103.5419 96° East 304 350 30,400 720 Climbing Denver Center
11:45AM 39.7164 -103.4314 96° East 308 354 31,100 600 Climbing Denver Center
11:46AM 39.7075 -103.3172 96° East 315 362 31,700 480 Climbing Denver Center
11:47AM 39.6964 -103.2022 97° East 320 368 32,200 480 Climbing Denver Center
11:48AM 39.6867 -103.0603 95° East 328 377 32,800 360 Climbing Denver Center
11:49AM 39.6753 -102.9403 97° East 335 386 33,000 60 Climbing Denver Center
11:50AM 39.6664 -102.8153 95° East 347 399 33,000  Level Denver Center
11:52AM 39.6533 -102.6797 97° East 362 417 33,000  Level Denver Center
11:53AM 39.6417 -102.5528 97° East 370 426 33,000  Level Denver Center
11:54AM 39.6297 -102.4025 96° East 375 432 33,000  Level Denver Center
11:55AM 39.6175 -102.2722 97° East 379 436 33,000  Level Denver Center
11:56AM 39.6025 -102.1175 97° East 387 445 33,000  Level Denver Center
11:57AM 39.5906 -101.9839 97° East 390 449 33,000  Level Denver Center
11:58AM 39.5789 -101.8278 95° East 389 448 33,000  Level Denver Center
11:59AM 39.5675 -101.6928 96° East 394 453 33,000  Level Denver Center
12:00PM 39.5531 -101.5147 96° East 390 449 33,000  Level Denver Center
12:01PM 39.5417 -101.3581 95° East 391 450 33,000  Level Denver Center
12:02PM 39.5378 -101.2233 92° East 393 452 33,000  Level Denver Center
12:03PM 39.5319 -101.0653 93° East 394 453 33,000  Level Denver Center
12:04PM 39.5275 -100.9314 92° East 392 451 33,000  Level Denver Center
12:05PM 39.5231 -100.7961 92° East 393 452 33,000  Level Denver Center
12:06PM 39.5167 -100.6386 93° East 394 453 33,000  Level Denver Center
12:07PM 39.5106 -100.5019 93° East 396 456 33,000  Level Denver Center
12:08PM 39.5044 -100.3428 93° East 395 455 33,000  Level Denver Center
12:09PM 39.4986 -100.2072 93° East 395 455 33,000  Level Denver Center
12:10PM 39.4925 -100.0508 93° East 392 451 33,000  Level Denver Center
12:11PM 39.4861 -99.9172 94° East 392 451 33,000  Level Denver Center
12:12PM 39.4864 -99.7583 90° East 396 456 33,000  Level Denver Center
12:13PM 39.4856 -99.6242 90° East 391 450 33,000  Level Denver Center
12:14PM 39.4850 -99.4822 90° East 393 452 33,000  Level Denver Center
12:16PM 39.4847 -99.3406 90° East 394 453 33,000  Level Denver Center
12:17PM 39.4831 -99.1719 91° East 393 452 33,000  Level Denver Center
12:18PM 39.4817 -99.0292 91° East 396 456 33,000  Level Denver Center
12:19PM 39.4817 -98.8892 90° East 390 449 33,000  Level Denver Center
12:20PM 39.4789 -98.7469 91° East 393 452 33,000  Level Denver Center
12:21PM 39.4781 -98.6053 90° East 395 455 33,000  Level Denver Center
12:21PM 39.4769 -98.4894 91° East 397 457 33,000  Level Kansas City Center
12:22PM 39.4750 -98.3492 91° East 392 451 33,000  Level Kansas City Center
12:23PM 39.4714 -98.2025 92° East 394 453 33,000  Level Kansas City Center
12:24PM 39.4697 -98.0672 91° East 392 451 33,000  Level Kansas City Center
12:25PM 39.4653 -97.9081 92° East 395 455 33,000  Level Kansas City Center
12:27PM 39.4656 -97.7817 90° East 397 457 33,000  Level Kansas City Center
12:28PM 39.4625 -97.6122 91° East 395 455 33,000  Level Kansas City Center
12:29PM 39.4589 -97.4786 92° East 392 451 33,000  Level Kansas City Center
12:30PM 39.4547 -97.3425 92° East 394 453 33,000  Level Kansas City Center
12:31PM 39.4514 -97.1828 91° East 397 457 33,000  Level Kansas City Center
12:32PM 39.4483 -97.0472 92° East 395 455 33,000  Level Kansas City Center
12:33PM 39.4431 -96.8900 92° East 394 453 33,000 60 Level Kansas City Center
12:34PM 39.4403 -96.7564 91° East 390 449 33,200 240 Climbing Kansas City Center
12:35PM 39.4347 -96.6019 93° East 386 444 33,600 300 Climbing Kansas City Center
12:36PM 39.4314 -96.4681 92° East 377 434 33,900 240 Climbing Kansas City Center
12:37PM 39.4419 -96.3339 84° East 375 432 34,200 240 Climbing Kansas City Center
12:38PM 39.4603 -96.2017 80° East 374 430 34,400 240 Climbing Kansas City Center
12:39PM 39.4786 -96.0489 81° East 373 429 34,800 240 Climbing Kansas City Center
12:40PM 39.4942 -95.9219 81° East 373 429 35,000 60 Climbing Kansas City Center
12:41PM 39.5136 -95.7725 80° East 377 434 35,000  Level Kansas City Center
12:42PM 39.5294 -95.6417 81° East 381 438 35,000  Level Kansas City Center
12:43PM 39.5447 -95.5092 81° East 386 444 35,000  Level Kansas City Center
12:44PM 39.5658 -95.3550 80° East 387 445 35,000  Level Kansas City Center
12:45PM 39.5825 -95.2214 81° East 389 448 35,000  Level Kansas City Center
12:46PM 39.5683 -95.0669 97° East 382 440 35,000  Level Kansas City Center
12:47PM 39.5603 -94.9308 94° East 390 449 35,100  Climbing Kansas City Center
12:48PM 39.5514 -94.7958 95° East 392 451 35,000 -60 Descending Kansas City Center
12:49PM 39.5419 -94.6406 94° East 386 444 35,000  Level Kansas City Center
12:50PM 39.5325 -94.5078 95° East 386 444 35,000  Level Kansas City Center
12:51PM 39.5219 -94.3519 95° East 388 447 35,000  Level Kansas City Center
12:52PM 39.5125 -94.2189 95° East 388 447 35,000  Level Kansas City Center
12:53PM 39.5014 -94.0614 95° East 392 451 35,000  Level Kansas City Center
12:54PM 39.4917 -93.9264 95° East 393 452 35,000  Level Kansas City Center
12:55PM 39.4797 -93.7675 96° East 396 456 35,000  Level Kansas City Center
12:56PM 39.4703 -93.6283 95° East 404 465 35,000  Level Kansas City Center
12:58PM 39.4606 -93.4864 95° East 403 464 35,000  Level Kansas City Center
12:59PM 39.4494 -93.3444 96° East 402 463 35,000  Level Kansas City Center
01:00PM 39.4353 -93.1719 96° East 406 467 35,000  Level Kansas City Center
01:01PM 39.4233 -93.0281 96° East 407 468 35,000  Level Kansas City Center
01:02PM 39.4119 -92.8806 96° East 414 476 35,000  Level Kansas City Center
01:03PM 39.3997 -92.7372 96° East 410 472 35,000  Level Kansas City Center
01:04PM 39.3875 -92.5914 96° East 411 473 35,000  Level Kansas City Center
01:05PM 39.3722 -92.4172 96° East 412 474 35,000  Level Kansas City Center
01:06PM 39.3603 -92.2725 96° East 410 472 35,000  Level Kansas City Center
01:07PM 39.3469 -92.1258 97° East 412 474 35,000  Level Kansas City Center
01:08PM 39.3347 -91.9808 96° East 413 475 35,000  Level Kansas City Center
01:09PM 39.3189 -91.8075 97° East 411 473 35,000  Level Kansas City Center
01:11PM 39.2914 -91.5114 97° East 408 470 35,000  Level Kansas City Center
01:12PM 39.2786 -91.3664 96° East 407 468 35,000  Level Kansas City Center
01:13PM 39.2636 -91.2197 97° East 410 472 35,000  Level Kansas City Center
01:14PM 39.2497 -91.0733 97° East 411 473 35,000  Level Kansas City Center
01:15PM 39.2353 -90.9281 97° East 409 471 35,000  Level Kansas City Center
01:16PM 39.2217 -90.7800 97° East 413 475 35,000  Level Kansas City Center
01:17PM 39.2031 -90.6031 98° East 414 476 35,000  Level Kansas City Center
01:18PM 39.1886 -90.4553 97° East 413 475 35,000  Level Kansas City Center
01:19PM 39.1719 -90.3072 98° East 414 476 35,000  Level Kansas City Center
01:20PM 39.1575 -90.1592 97° East 415 478 35,000  Level Kansas City Center
01:21PM 39.1414 -90.0119 98° East 413 475 35,000  Level Kansas City Center
01:22PM 39.1222 -89.8394 98° East 413 475 35,000  Level Kansas City Center
01:23PM 39.1064 -89.6911 98° East 416 479 35,000  Level Kansas City Center
01:24PM 39.0894 -89.5428 98° East 418 481 35,000  Level Kansas City Center
01:25PM 39.0711 -89.3828 98° East 419 482 35,000  Level Kansas City Center
01:27PM 39.0544 -89.2353 98° East 418 481 35,000  Level Kansas City Center
01:28PM 39.0358 -89.0764 99° East 418 481 35,000  Level Kansas City Center
01:29PM 39.0217 -88.9469 98° East 419 482 35,000  Level Kansas City Center
01:30PM 39.0089 -88.7989 96° East 420 483 35,000  Level Kansas City Center
01:31PM 38.9856 -88.6206 100° East 422 486 35,000  Level Kansas City Center
01:32PM 38.9681 -88.4644 98° East 421 484 35,000  Level Kansas City Center
01:33PM 38.9500 -88.3144 99° East 423 487 35,000  Level Kansas City Center
01:34PM 38.9308 -88.1644 99° East 423 487 35,000  Level Kansas City Center
01:35PM 38.9108 -88.0153 100° East 423 487 35,000 -420 Level Kansas City Center
01:36PM 38.8931 -87.8622 98° East 429 494 34,200 -1,320 Descending Kansas City Center
01:37PM 38.8725 -87.7050 99° East 441 507 32,300 -1,800 Descending Kansas City Center
01:38PM 38.8522 -87.5550 100° East 431 496 30,500 -1,800 Descending Kansas City Center
01:39PM 38.8275 -87.3781 100° East 421 484 28,500 -1,680 Descending Indianapolis Center
01:40PM 38.8086 -87.2311 99° East 415 478 26,900 -1,920 Descending Indianapolis Center
01:41PM 38.7897 -87.0881 100° East 406 467 24,600 -2,040 Descending Indianapolis Center
01:42PM 38.7708 -86.9469 100° East 400 460 22,800 -1,680 Descending Indianapolis Center
01:43PM 38.7525 -86.8142 100° East 381 438 21,200 -1,680 Descending Indianapolis Center
01:44PM 38.7317 -86.6561 100° East 373 429 19,400 -1,140 Descending Indianapolis Center
01:45PM 38.7147 -86.5297 100° East 361 415 18,900 -600 Descending Indianapolis Center
01:46PM 38.7100 -86.4014 93° East 360 414 18,200 -840 Descending Indianapolis Center
01:47PM 38.7058 -86.2711 92° East 364 419 17,300 -900 Descending Indianapolis Center
01:48PM 38.7006 -86.1439 93° East 358 412 16,400 -780 Descending Indianapolis Center
01:49PM 38.6953 -86.0192 93° East 351 404 15,800 -780 Descending Indianapolis Center
01:50PM 38.6881 -85.8919 94° East 342 394 14,900 -840 Descending Indianapolis Center
01:51PM 38.6822 -85.7747 94° East 335 386 14,200 -720 Descending Indianapolis Center
01:52PM 38.6789 -85.6558 92° East 334 384 13,500 -780 Descending Indianapolis Center
01:53PM 38.6725 -85.5394 94° East 329 379 12,700 -720 Descending Indianapolis Center
01:54PM 38.6822 -85.4269 84° East 330 380 12,100 -300 Descending Indianapolis Center
01:55PM 38.7367 -85.3178 57° Northeast 309 356 12,100  Level Indianapolis Center
01:56PM 38.7814 -85.2181 60° Northeast 320 368 12,100  Level Indianapolis Center
01:58PM 38.8278 -85.1189 59° Northeast 324 373 12,100 -180 Level Indianapolis Center
01:59PM 38.8747 -85.0192 59° Northeast 327 376 11,800 -540 Descending Indianapolis Center
02:00PM 38.9181 -84.9206 61° Northeast 321 369 11,100 -840 Descending Indianapolis Center
02:01PM 38.9633 -84.8203 60° Northeast 314 361 10,100 -1,020 Descending Indianapolis Center
02:01PM 38.9833 -84.7833 55° Northeast 293 337 9,800 -1,620 Descending Cincinnati TRACON
02:02PM 39.0167 -84.7167 57° Northeast 242 278 8,300 -1,740 Descending Cincinnati TRACON
02:03PM 39.0500 -84.6500 57° Northeast 239 275 6,600 -1,260 Descending Cincinnati TRACON
02:04PM 39.0897 -84.6042 42° Northeast 215 247 5,900 -780 Descending Indianapolis Center
02:05PM 39.1225 -84.5583 47° Northeast 185 213 5,100 -1,020 Descending Indianapolis Center
02:06PM 39.1497 -84.5119 53° Northeast 168 193 3,900 -840 Descending Indianapolis Center
02:07PM 39.1414 -84.4611 102° East 167 192 3,500 -420 Descending Indianapolis Center
02:10PM 39.1000 -84.4167 57° Northeast  Level FlightAware Approximate
02:17PM 39.1033 -84.4186 57° Northeast  Level Estimated